createdAt,value
2023-04-02T00:00:34.463Z,95.88
2023-04-02T00:03:03.880Z,96.33
2023-04-02T00:05:49.932Z,96.42
2023-04-02T00:08:26.453Z,96.70
2023-04-02T00:10:56.633Z,96.46
2023-04-02T00:13:43.569Z,96.55
2023-04-02T00:16:23.895Z,96.75
2023-04-02T00:18:55.525Z,96.71
2023-04-02T00:21:26.058Z,97.39
2023-04-02T00:23:58.920Z,97.69
2023-04-02T00:26:36.682Z,97.47
2023-04-02T00:29:07.593Z,97.49
2023-04-02T00:31:39.031Z,97.28
2023-04-02T00:34:09.080Z,97.33
2023-04-02T00:36:36.842Z,96.92
2023-04-02T00:39:12.962Z,97.73
2023-04-02T00:41:39.494Z,97.77
2023-04-02T00:44:06.095Z,97.30
2023-04-02T00:46:49.574Z,96.77
2023-04-02T00:49:31.474Z,96.98
2023-04-02T06:33:30.594Z,93.29
2023-04-02T06:35:57.881Z,92.63
2023-04-02T06:38:29.826Z,92.59
2023-04-02T06:41:05.255Z,92.55
2023-04-02T06:43:40.972Z,92.55
2023-04-02T06:46:19.918Z,92.56
2023-04-02T06:48:49.646Z,92.47
2023-04-02T06:51:20.286Z,92.90
2023-04-02T06:53:49.178Z,92.38
2023-04-02T06:56:22.725Z,92.76
2023-04-02T06:58:49.439Z,91.95
2023-04-02T07:01:19.470Z,91.89
2023-04-02T07:03:46.184Z,92.28
2023-04-02T07:06:18.279Z,93.06
2023-04-02T07:08:46.430Z,92.37
2023-04-02T07:11:20.878Z,92.81
2023-04-02T07:13:49.046Z,94.08
2023-04-02T07:16:27.453Z,92.57
2023-04-02T07:18:55.788Z,92.99
2023-04-02T07:21:24.418Z,92.82
2023-04-02T07:23:51.157Z,92.58
2023-04-02T07:26:25.304Z,92.31
2023-04-02T07:28:52.031Z,92.32
2023-04-02T07:31:23.449Z,92.33
2023-04-02T07:33:51.172Z,92.38
2023-04-02T07:36:23.391Z,92.63
2023-04-02T07:38:52.215Z,93.13
2023-04-02T07:41:20.976Z,92.30
2023-04-02T07:43:48.054Z,92.14
2023-04-02T07:46:17.437Z,90.15
2023-04-02T07:48:44.933Z,89.55
2023-04-02T07:51:18.054Z,90.34
2023-04-02T07:53:44.491Z,91.25
2023-04-02T07:56:15.041Z,90.45
2023-04-02T07:58:42.298Z,89.95
2023-04-02T08:01:17.270Z,89.43
2023-04-02T08:03:44.526Z,89.31
2023-04-02T08:06:12.370Z,88.81
2023-04-02T08:08:39.364Z,88.38
2023-04-02T08:11:06.100Z,89.75
2023-04-02T08:13:33.420Z,88.76
2023-04-02T08:16:01.749Z,88.73
2023-04-02T08:18:29.783Z,88.56
2023-04-02T08:20:57.152Z,88.06
2023-04-02T08:23:24.148Z,88.73
2023-04-02T08:25:50.887Z,87.94
2023-04-02T08:28:18.012Z,87.68
2023-04-02T08:30:45.797Z,89.08
2023-04-02T08:33:12.594Z,88.91
2023-04-02T08:35:40.018Z,88.87
2023-04-02T08:38:07.164Z,88.25
2023-04-02T08:40:38.601Z,88.06
2023-04-02T08:43:29.168Z,87.28
2023-04-02T08:45:58.852Z,87.23
2023-04-02T08:48:25.510Z,86.78
2023-04-02T08:50:52.748Z,87.25
2023-04-02T08:53:26.576Z,84.55
2023-04-02T08:56:18.924Z,85.95
2023-04-02T08:58:54.250Z,85.27
2023-04-02T09:01:36.776Z,83.92
2023-04-02T09:04:13.156Z,84.51
2023-04-02T09:06:40.983Z,84.20
2023-04-02T09:09:08.946Z,84.02
2023-04-02T09:11:47.669Z,85.78
2023-04-02T09:14:34.406Z,83.10
2023-04-02T09:17:03.698Z,84.01
2023-04-02T09:19:37.823Z,82.32
2023-04-02T09:22:31.620Z,85.38
2023-04-02T09:25:01.099Z,81.49
2023-04-02T09:27:34.382Z,81.33
2023-04-02T09:30:33.265Z,82.15
2023-04-02T09:33:02.557Z,81.61
2023-04-02T09:35:34.458Z,82.01
2023-04-02T09:38:09.849Z,83.33
2023-04-02T09:40:51.652Z,82.14
2023-04-02T09:43:24.040Z,82.53
2023-04-02T09:45:56.487Z,82.01
2023-04-02T09:48:30.043Z,81.86
2023-04-02T09:51:23.493Z,80.36
2023-04-02T09:54:07.205Z,80.54
2023-04-02T09:56:35.762Z,80.76
2023-04-02T09:59:12.968Z,80.35
2023-04-02T10:01:57.447Z,79.71
2023-04-02T10:04:47.772Z,80.32
2023-04-02T10:07:36.396Z,80.05
2023-04-02T10:10:18.136Z,82.17
2023-04-02T10:12:56.728Z,81.36
2023-04-02T10:15:35.179Z,80.50
2023-04-02T10:18:12.322Z,82.63
2023-04-02T10:20:50.575Z,81.17
2023-04-02T10:23:19.484Z,81.00
2023-04-02T10:26:23.745Z,80.86
2023-04-02T10:29:07.954Z,80.27
2023-04-02T10:31:41.030Z,78.61
2023-04-02T10:34:17.344Z,77.46
2023-04-02T10:36:54.236Z,79.17
2023-04-02T10:39:32.901Z,78.47
2023-04-02T10:42:18.529Z,77.70
2023-04-02T10:45:36.724Z,77.85
2023-04-02T10:48:28.554Z,78.57
2023-04-02T10:51:07.042Z,78.22
2023-04-02T10:53:48.875Z,78.29
2023-04-02T10:56:15.472Z,79.85
2023-04-02T10:58:59.518Z,79.09
2023-04-02T11:01:29.494Z,79.39
2023-04-02T11:04:01.844Z,79.66
2023-04-02T11:06:41.753Z,79.73
2023-04-02T11:09:18.177Z,77.90
2023-04-02T11:11:48.644Z,76.43
2023-04-02T11:14:26.442Z,76.42
2023-04-02T11:16:55.068Z,75.80
2023-04-02T11:19:30.243Z,76.17
2023-04-02T11:22:04.338Z,76.16
2023-04-02T11:24:42.936Z,75.97
2023-04-02T11:27:11.987Z,76.09
2023-04-02T11:29:58.906Z,75.95
2023-04-02T11:32:39.125Z,75.76
2023-04-02T11:35:30.592Z,76.89
2023-04-02T11:38:05.870Z,76.18
2023-04-02T11:40:47.746Z,75.99
2023-04-02T11:43:35.373Z,75.84
2023-04-02T11:46:03.597Z,75.61
2023-04-02T11:48:36.160Z,74.30
2023-04-02T11:51:22.302Z,73.94
2023-04-02T11:53:51.643Z,73.78
2023-04-02T11:56:31.562Z,72.18
2023-04-02T11:59:27.400Z,73.12
2023-04-02T12:02:09.555Z,72.05
2023-04-02T12:05:07.458Z,71.27
2023-04-02T12:07:56.637Z,71.52
2023-04-02T12:10:28.420Z,70.96
2023-04-02T12:12:54.927Z,72.20
2023-04-02T12:15:31.530Z,69.24
2023-04-02T12:18:16.993Z,70.71
2023-04-02T12:20:52.856Z,70.89
2023-04-02T12:23:22.630Z,70.39
2023-04-02T12:26:01.249Z,70.63
2023-04-02T12:28:31.022Z,70.84
2023-04-02T12:31:18.438Z,70.23
2023-04-02T12:33:45.713Z,70.21
2023-04-02T12:36:14.097Z,69.24
2023-04-02T12:38:45.618Z,72.04
2023-04-02T12:41:30.784Z,70.76
2023-04-02T12:44:04.024Z,70.20
2023-04-02T12:46:31.946Z,70.81
2023-04-02T12:49:05.888Z,72.06
2023-04-02T12:51:36.236Z,71.50
2023-04-02T12:54:04.554Z,70.71
2023-04-02T12:56:31.362Z,70.32
2023-04-02T12:58:58.777Z,71.63
2023-04-02T13:01:31.436Z,69.83
2023-04-02T13:04:06.200Z,70.49
2023-04-02T13:06:35.182Z,72.23
2023-04-02T13:09:04.866Z,70.01
2023-04-02T13:11:41.898Z,72.22
2023-04-02T13:14:17.980Z,72.02
2023-04-02T13:16:44.488Z,72.87
2023-04-02T13:19:16.731Z,74.74
2023-04-02T13:21:44.713Z,74.77
2023-04-02T13:24:22.952Z,74.51
2023-04-02T13:26:51.202Z,73.92
2023-04-02T13:29:25.778Z,74.94
2023-04-02T13:31:55.793Z,75.35
2023-04-02T13:34:22.695Z,76.44
2023-04-02T13:36:49.472Z,72.49
2023-04-02T13:39:16.555Z,72.72
2023-04-02T13:41:45.766Z,71.35
2023-04-02T13:44:27.927Z,72.72
2023-04-02T13:46:55.658Z,70.58
2023-04-02T13:49:23.363Z,69.81
2023-04-02T13:51:58.011Z,68.43
2023-04-02T13:54:37.162Z,69.86
2023-04-02T13:57:03.771Z,71.15
2023-04-02T13:59:30.264Z,67.77
2023-04-02T14:02:03.148Z,67.96
2023-04-02T14:04:33.200Z,68.58
2023-04-02T14:07:14.960Z,70.33
2023-04-02T14:10:03.839Z,73.60
2023-04-02T14:12:51.951Z,72.53
2023-04-02T14:15:37.107Z,75.04
2023-04-02T14:18:36.528Z,73.49
2023-04-02T14:21:10.835Z,74.09
2023-04-02T14:23:58.418Z,74.29
2023-04-02T14:27:18.710Z,74.98
2023-04-02T14:30:04.272Z,74.68
2023-04-02T14:32:55.405Z,75.36
2023-04-02T14:35:37.191Z,75.14
2023-04-02T14:38:26.704Z,74.71
2023-04-02T14:41:02.052Z,75.88
2023-04-02T14:43:54.345Z,75.95
2023-04-02T14:46:26.481Z,75.58
2023-04-02T14:49:01.628Z,75.83
2023-04-02T14:51:37.463Z,75.48
2023-04-02T14:54:11.068Z,75.13
2023-04-02T14:56:55.378Z,74.64
2023-04-02T14:59:35.468Z,75.69
2023-04-02T15:02:13.259Z,74.00
2023-04-02T15:05:01.221Z,73.70
2023-04-02T15:07:38.949Z,73.86
2023-04-02T15:10:23.859Z,74.23
2023-04-02T15:12:52.236Z,74.84
2023-04-02T15:15:44.473Z,74.51
2023-04-02T15:18:15.402Z,74.40
2023-04-02T15:20:55.573Z,75.25
2023-04-02T15:23:41.651Z,74.76
2023-04-02T15:26:14.137Z,73.91
2023-04-02T15:28:47.595Z,74.22
2023-04-02T15:31:15.039Z,74.20
2023-04-02T15:33:44.499Z,75.09
2023-04-02T15:36:31.327Z,75.00
2023-04-02T15:39:11.074Z,73.83
2023-04-02T15:41:47.585Z,74.42
2023-04-02T15:44:17.030Z,75.29
2023-04-02T15:46:57.093Z,75.92
2023-04-02T15:49:29.292Z,76.02
2023-04-02T15:52:34.152Z,75.29
2023-04-02T15:55:25.572Z,75.86
2023-04-02T15:58:19.995Z,76.59
2023-04-02T16:01:02.196Z,76.63
2023-04-02T16:03:48.224Z,75.38
2023-04-02T16:06:26.070Z,75.38
2023-04-02T16:09:21.668Z,75.87
2023-04-02T16:11:55.818Z,75.48
2023-04-02T16:14:33.068Z,75.69
2023-04-02T16:17:14.235Z,74.11
2023-04-02T16:19:50.562Z,75.63
2023-04-02T16:22:17.226Z,72.70
2023-04-02T16:24:48.664Z,73.28
2023-04-02T16:27:40.214Z,69.70
2023-04-02T16:30:22.505Z,68.74
2023-04-02T16:33:14.249Z,68.02
2023-04-02T16:36:06.991Z,68.91
2023-04-02T16:38:54.019Z,67.71
2023-04-02T16:42:00.077Z,67.95
2023-04-02T16:44:39.959Z,66.43
2023-04-02T16:47:29.377Z,66.31
2023-04-02T16:49:59.770Z,67.69
2023-04-02T16:52:32.231Z,67.64
2023-04-02T16:55:29.709Z,66.02
2023-04-02T16:58:11.556Z,66.90
2023-04-02T17:00:42.242Z,67.20
2023-04-02T17:03:38.891Z,67.78
2023-04-02T17:06:09.206Z,67.19
2023-04-02T17:08:43.577Z,66.96
2023-04-02T17:11:23.742Z,67.19
2023-04-02T17:14:07.948Z,66.77
2023-04-02T17:16:40.562Z,66.59
2023-04-02T17:19:12.433Z,67.67
2023-04-02T17:21:43.219Z,65.69
2023-04-02T17:24:27.944Z,66.26
2023-04-02T17:27:06.103Z,65.78
2023-04-02T17:29:37.654Z,66.61
2023-04-02T17:32:12.037Z,66.70
2023-04-02T17:34:38.574Z,65.48
2023-04-02T17:37:05.596Z,65.77
2023-04-02T17:40:04.593Z,66.34
2023-04-02T17:42:44.005Z,66.27
2023-04-02T17:45:23.189Z,65.90
2023-04-02T17:48:17.954Z,67.25
2023-04-02T17:51:02.760Z,67.90
2023-04-02T17:53:39.328Z,66.79
2023-04-02T17:56:17.281Z,66.75
2023-04-02T17:59:13.139Z,68.62
2023-04-02T18:01:53.879Z,67.21
2023-04-02T18:04:42.455Z,66.42
2023-04-02T18:07:36.721Z,68.50
2023-04-02T18:10:35.830Z,66.75
2023-04-02T18:13:13.137Z,65.82
2023-04-02T18:16:35.570Z,64.68
2023-04-02T18:19:19.064Z,65.74
2023-04-02T18:22:04.460Z,68.27
2023-04-02T18:24:31.499Z,66.48
2023-04-02T18:27:10.969Z,69.19
2023-04-02T18:29:49.165Z,67.71
2023-04-02T18:32:47.185Z,65.98
2023-04-02T18:35:32.617Z,65.70
2023-04-02T18:38:21.355Z,64.47
2023-04-02T18:41:01.676Z,67.66
2023-04-02T18:44:00.964Z,67.08
2023-04-02T18:46:36.830Z,64.88
2023-04-02T18:49:24.583Z,65.19
2023-04-02T18:51:57.171Z,63.78
2023-04-02T18:54:32.766Z,63.32
2023-04-02T18:57:02.648Z,64.05
2023-04-02T18:59:47.837Z,64.53
2023-04-02T19:02:20.380Z,64.29
2023-04-02T19:04:58.198Z,63.45
2023-04-02T19:07:28.852Z,64.84
2023-04-02T19:09:58.825Z,66.93
2023-04-02T19:12:25.428Z,65.53
2023-04-02T19:14:52.633Z,64.42
2023-04-02T19:17:40.729Z,64.01
2023-04-02T19:20:10.688Z,67.09
2023-04-02T19:23:00.772Z,65.04
2023-04-02T19:25:51.136Z,71.00
2023-04-02T19:28:29.936Z,67.06
2023-04-02T19:31:29.289Z,68.01
2023-04-02T19:34:21.802Z,66.19
2023-04-02T19:36:57.033Z,68.39
2023-04-02T19:39:26.625Z,69.00
2023-04-02T19:42:00.525Z,65.34
2023-04-02T19:44:27.219Z,68.52
2023-04-02T19:46:53.897Z,67.37
2023-04-02T19:49:28.401Z,65.67
2023-04-02T19:51:55.644Z,68.08
2023-04-02T19:54:22.695Z,67.42
2023-04-02T19:56:49.484Z,65.20
2023-04-02T19:59:18.505Z,63.62
2023-04-02T20:01:46.340Z,65.65
2023-04-02T20:04:13.319Z,67.13
2023-04-02T20:06:39.819Z,67.25
2023-04-02T20:09:08.041Z,65.55
2023-04-02T20:11:36.122Z,67.30
2023-04-02T20:14:03.168Z,66.11
2023-04-02T20:16:29.601Z,65.94
2023-04-02T20:18:56.738Z,67.02
2023-04-02T20:21:23.312Z,67.69
2023-04-02T20:23:56.302Z,67.94
2023-04-02T20:26:23.177Z,66.64
2023-04-02T20:28:49.984Z,69.86
2023-04-02T20:31:18.248Z,68.82
2023-04-02T20:33:45.516Z,65.65
2023-04-02T20:36:15.594Z,65.29
2023-04-02T20:38:43.460Z,66.07
2023-04-02T20:41:10.226Z,66.41
2023-04-02T20:43:37.389Z,67.62
2023-04-02T20:46:06.417Z,64.57
2023-04-02T20:48:36.050Z,65.71
2023-04-02T20:51:05.490Z,65.87
2023-04-02T20:53:34.523Z,67.08
2023-04-02T20:56:16.068Z,65.56
2023-04-02T20:58:45.578Z,63.94
2023-04-02T21:01:18.339Z,65.00
2023-04-02T21:03:45.352Z,65.46
2023-04-02T21:06:13.247Z,66.08
2023-04-02T21:08:40.145Z,67.99
2023-04-02T21:11:07.309Z,66.37
2023-04-02T21:13:37.754Z,67.55
2023-04-02T21:16:38.075Z,68.36
2023-04-02T21:19:08.296Z,66.95
2023-04-02T21:21:36.054Z,69.16
2023-04-02T21:24:05.564Z,71.62
2023-04-02T21:26:35.125Z,68.59
2023-04-02T21:29:01.885Z,67.48
2023-04-02T21:31:30.648Z,65.97
2023-04-02T21:33:58.361Z,64.46
2023-04-02T21:36:33.764Z,63.54
2023-04-02T21:39:03.382Z,64.95
2023-04-02T21:41:32.974Z,62.63
2023-04-02T21:44:02.987Z,63.56
2023-04-02T21:46:31.568Z,62.96
2023-04-02T21:48:59.463Z,63.44
2023-04-02T21:51:28.731Z,65.38
2023-04-02T21:53:55.869Z,64.94
2023-04-02T21:56:28.543Z,64.01
2023-04-02T21:58:56.803Z,65.59
2023-04-02T22:01:28.045Z,65.84
2023-04-02T22:03:56.437Z,68.89
2023-04-02T22:06:25.364Z,68.81
2023-04-02T22:09:05.015Z,66.84
2023-04-02T22:11:34.159Z,68.21
2023-04-02T22:14:03.227Z,68.36
2023-04-02T22:16:31.774Z,69.43
2023-04-02T22:19:02.182Z,68.80
2023-04-02T22:21:30.943Z,71.53
2023-04-02T22:24:03.090Z,71.98
2023-04-02T22:26:30.271Z,73.52
2023-04-02T22:28:57.156Z,70.46
2023-04-02T22:31:26.498Z,71.62
2023-04-02T22:33:54.841Z,72.16
2023-04-02T22:36:22.724Z,72.17
2023-04-02T22:38:51.796Z,73.01
2023-04-02T22:41:26.237Z,75.19
2023-04-02T22:43:53.546Z,74.63
2023-04-02T22:46:21.686Z,73.83
2023-04-02T22:48:49.348Z,74.64
2023-04-02T22:51:18.247Z,75.45
2023-04-02T22:53:45.734Z,77.19
2023-04-02T22:56:21.865Z,74.58
2023-04-02T22:58:49.327Z,76.42
2023-04-02T23:01:25.679Z,75.79
2023-04-02T23:03:53.937Z,76.13
2023-04-02T23:06:21.032Z,75.70
2023-04-02T23:08:47.724Z,76.47
2023-04-02T23:11:19.917Z,76.29
2023-04-02T23:13:48.842Z,78.03
2023-04-02T23:16:16.753Z,76.06
2023-04-02T23:18:47.145Z,77.51
2023-04-02T23:21:14.620Z,76.11
2023-04-02T23:23:41.939Z,76.81
2023-04-02T23:26:14.750Z,76.64
2023-04-02T23:28:41.174Z,77.70
2023-04-02T23:31:13.178Z,77.21
2023-04-02T23:33:40.359Z,77.98
2023-04-02T23:36:10.678Z,78.55
2023-04-02T23:38:37.954Z,78.43
2023-04-02T23:41:04.547Z,78.73
2023-04-02T23:43:31.401Z,79.64
2023-04-02T23:45:58.161Z,79.83
2023-04-02T23:48:24.733Z,79.79
2023-04-02T23:50:51.215Z,78.45
2023-04-02T23:53:18.575Z,79.30
2023-04-02T23:55:45.710Z,79.93
2023-04-02T23:58:12.174Z,79.78
